Airfield :
LOGIN :

Register | Disclaimer

   EN    FR    IT 

 










Legend :    VFR   Marginal VFR   IFR   Intensive IFR   Very Intensive IFR
Visi :
Ceiling :
>= 8 km
>= 3000ft
5 to 8 km
1000 to 3000 ft
1500m to 5 km
500 to 1000 ft
800 to 1500m
200 to 500 ft
< 800m
< 200 ft
Symbols :   Thunderstorms  Fog  Heavy snow  Heavy precipitations  Wind > 20 kt
SIGMETs :     Misc.  Thunderstorms  Icing  Turbulence  Mountain Waves  Volcanic Ashes






- Airport Elevation : 63 ft
- IATA code : BZM


EHWO - Woensdrecht Airbase

CURRENT METAR :
  • 270825Z AUTO 15005KT 110V190 8000 -RA FEW013 BKN016 OVC020 03/02 Q0999 RERA REDZ WHT

EXPIRED METARs :
  • 270808Z AUTO 14004KT 090V200 9999 DZ FEW015 SCT018 BKN021 03/02 Q0999 WHT
  • 270759Z AUTO 15003KT 110V190 9999 FEW014 SCT039 BKN046 03/02 Q0999 BLU
  • 270755Z AUTO 15004KT 110V190 9999 FEW016 SCT023 BKN050 03/02 Q0999 WHT
  • 270742Z AUTO 15003KT 130V190 9999 FEW015 SCT036 BKN050 03/02 Q1000 BLU
  • 270725Z AUTO 15004KT 130V200 9999 DZ FEW018 SCT023 BKN027 03/02 Q1000 WHT
  • 270655Z AUTO 18005KT 140V230 9999 -RADZ FEW023 SCT027 BKN031 03/01 Q1000 BLU
  • 270645Z AUTO 18004KT 110V230 9999 DZRA FEW023 SCT028 BKN032 03/01 Q1000 BLU
  • 270629Z AUTO 18005KT 150V230 9999 DZ FEW021 BKN025 OVC030 03/01 Q1001 BLU
  • 270625Z AUTO 19006KT 150V240 9999 -RADZ FEW008 SCT020 BKN023 03/01 Q1001 WHT
  • 270610Z AUTO 19006KT 160V230 9999 -RA FEW013 SCT016 BKN043 03/01 Q1001 WHT
  • 270555Z AUTO 18006KT 150V230 9999 BKN033 BKN037 OVC044 03/01 Q1001 BLU
  • 270525Z AUTO 18006KT 130V220 9999 FEW037 SCT073 BKN078 03/01 Q1002 BLU

TAF TAF EHWO
Valid from the 27 at 06:00 until the 27 at 18:00 UTC


270525Z 2706/2718 18007KT 9999 SCT035 OVC060
BECMG 2706/2709 3000 RASN BKN006 OVC008
TEMPO 2707/2718 1800 -SNRA SCT002 OVC006
PROB30
TEMPO 2709/2718 1000 SNRA SCT001 BKN002
BECMG 2710/2713 13005KT
BECMG 2715/2718 29008KT



MET'MAP, your aeronautical weather chart ! - Copyright ORBIFLY December 2007 - Disclaimer

ORBIFLY MET'MAP TEAM :

Programming & Development : Alexandra Zaïnal
Concept & original design : Baudouin d'Aumeries
Assistance for programming : Marc-Olivier Méhu
Technical & hardware support : Manuel Goepfert

Contact : metmap@orbifly.com




SOURCES & CREDITS :

   NOAA